createdAt,value
2017-06-13T00:01:18.991Z,40.80
2017-06-13T00:03:47.279Z,40.50
2017-06-13T00:06:15.571Z,40.60
2017-06-13T00:08:43.074Z,40.60
2017-06-13T00:11:10.566Z,40.50
2017-06-13T00:13:38.853Z,40.90
2017-06-13T00:16:07.118Z,41.20
2017-06-13T00:18:35.410Z,41.20
2017-06-13T00:21:03.710Z,41.80
2017-06-13T00:23:31.205Z,41.80
2017-06-13T00:25:58.702Z,41.80
2017-06-13T00:28:27.006Z,41.70
2017-06-13T00:30:54.502Z,41.70
2017-06-13T00:33:21.998Z,41.70
2017-06-13T00:35:49.690Z,41.80
2017-06-13T00:38:17.185Z,42.00
2017-06-13T00:40:44.675Z,42.30
2017-06-13T00:43:13.071Z,42.20
2017-06-13T00:45:40.574Z,42.10
2017-06-13T00:48:08.069Z,42.40
2017-06-13T00:50:36.378Z,42.30
2017-06-13T00:53:03.878Z,42.30
2017-06-13T00:55:31.374Z,42.30
2017-06-13T00:57:58.913Z,42.50
2017-06-13T01:00:26.401Z,42.40
2017-06-13T01:02:53.895Z,42.50
2017-06-13T01:05:21.434Z,42.60
2017-06-13T01:07:48.931Z,43.10
2017-06-13T01:10:16.431Z,43.00
2017-06-13T01:12:47.374Z,43.10
2017-06-13T01:15:14.874Z,43.30
2017-06-13T01:17:42.366Z,43.40
2017-06-13T01:20:10.659Z,43.60
2017-06-13T01:22:38.198Z,43.50
2017-06-13T01:25:05.690Z,43.90
2017-06-13T01:27:33.196Z,43.90
2017-06-13T01:30:00.920Z,44.10
2017-06-13T01:32:28.422Z,44.30
2017-06-13T01:34:55.910Z,44.40
2017-06-13T01:37:24.302Z,44.70
2017-06-13T01:39:51.802Z,44.70
2017-06-13T01:42:19.701Z,44.80
2017-06-13T01:44:47.323Z,44.70
2017-06-13T01:47:14.827Z,44.90
2017-06-13T01:49:42.341Z,45.00
2017-06-13T01:52:09.874Z,45.10
2017-06-13T01:54:37.407Z,45.50
2017-06-13T01:57:05.675Z,45.50
2017-06-13T01:59:33.220Z,45.40
2017-06-13T02:02:00.719Z,45.60
2017-06-13T02:04:28.227Z,45.60
2017-06-13T02:06:55.864Z,45.60
2017-06-13T02:09:23.363Z,45.60
2017-06-13T02:11:50.863Z,45.90
2017-06-13T02:14:18.834Z,46.10
2017-06-13T02:16:46.339Z,46.30
2017-06-13T02:19:13.839Z,46.40
2017-06-13T02:21:41.371Z,46.60
2017-06-13T02:24:08.918Z,46.90
2017-06-13T02:26:36.418Z,47.10
2017-06-13T02:29:03.919Z,47.10
2017-06-13T02:31:31.447Z,47.30
2017-06-13T02:33:58.998Z,47.40
2017-06-13T02:36:26.509Z,47.40
2017-06-13T02:38:54.011Z,47.60
2017-06-13T02:41:22.100Z,47.70
2017-06-13T02:43:49.598Z,47.80
2017-06-13T02:46:17.095Z,48.00
2017-06-13T02:48:45.487Z,48.20
2017-06-13T02:51:12.991Z,48.20
2017-06-13T02:53:40.491Z,48.40
2017-06-13T02:56:08.803Z,49.00
2017-06-13T02:58:36.306Z,49.00
2017-06-13T03:01:03.802Z,49.20
2017-06-13T03:03:31.430Z,49.20
2017-06-13T03:05:58.926Z,49.20
2017-06-13T03:08:26.431Z,49.30
2017-06-13T03:10:54.155Z,49.20
2017-06-13T03:13:21.655Z,49.50
2017-06-13T03:15:49.158Z,49.50
2017-06-13T03:18:16.787Z,49.80
2017-06-13T03:20:44.286Z,50.00
2017-06-13T03:23:11.902Z,49.70
2017-06-13T03:25:39.447Z,49.20
2017-06-13T03:28:06.951Z,49.40
2017-06-13T03:30:34.456Z,49.60
2017-06-13T03:33:02.186Z,49.70
2017-06-13T03:35:29.691Z,49.40
2017-06-13T03:37:57.186Z,49.40
2017-06-13T03:40:25.486Z,49.70
2017-06-13T03:42:52.988Z,49.60
2017-06-13T03:45:20.518Z,49.50
2017-06-13T03:47:48.043Z,49.50
2017-06-13T03:50:15.550Z,49.90
2017-06-13T03:52:43.070Z,50.00
2017-06-13T03:55:11.048Z,49.90
2017-06-13T03:57:38.546Z,50.00
2017-06-13T04:00:06.050Z,50.20
2017-06-13T04:02:34.350Z,50.00
2017-06-13T04:05:01.857Z,50.00
2017-06-13T04:07:29.383Z,50.10
2017-06-13T04:09:56.882Z,50.10
2017-06-13T04:12:24.411Z,50.30
2017-06-13T04:14:51.939Z,50.30
2017-06-13T04:17:19.466Z,50.10
2017-06-13T04:19:47.734Z,50.00
2017-06-13T04:22:15.267Z,49.90
2017-06-13T04:24:42.898Z,50.00
2017-06-13T04:27:10.406Z,50.00
2017-06-13T04:29:37.915Z,49.40
2017-06-13T04:32:05.462Z,49.70
2017-06-13T04:34:32.963Z,49.40
2017-06-13T04:37:00.462Z,49.50
2017-06-13T04:39:28.977Z,49.40
2017-06-13T04:41:56.478Z,49.50
2017-06-13T04:44:23.979Z,50.00
2017-06-13T04:46:51.611Z,49.80
2017-06-13T04:49:19.120Z,49.60
2017-06-13T04:51:46.628Z,49.60
2017-06-13T04:54:14.174Z,49.60
2017-06-13T04:56:41.674Z,49.60
2017-06-13T04:59:09.179Z,49.70
2017-06-13T05:01:36.727Z,49.60
2017-06-13T05:04:04.592Z,49.70
2017-06-13T05:06:32.099Z,49.60
2017-06-13T05:09:00.402Z,49.90
2017-06-13T05:11:27.916Z,49.80
2017-06-13T05:13:55.446Z,49.80
2017-06-13T05:16:22.975Z,49.70
2017-06-13T05:18:50.478Z,49.70
2017-06-13T05:21:18.211Z,49.80
2017-06-13T05:23:45.721Z,49.70
2017-06-13T05:26:13.228Z,49.80
2017-06-13T05:28:40.762Z,49.80
2017-06-13T05:31:08.335Z,49.80
2017-06-13T05:33:35.842Z,49.70
2017-06-13T05:36:03.346Z,49.60
2017-06-13T05:38:31.943Z,49.90
2017-06-13T05:40:59.447Z,49.90
2017-06-13T05:43:26.950Z,49.90
2017-06-13T05:45:54.507Z,50.00
2017-06-13T05:48:22.774Z,49.90
2017-06-13T05:50:51.047Z,50.00
2017-06-13T05:53:19.671Z,50.00
2017-06-13T05:55:47.175Z,50.00
2017-06-13T05:58:14.686Z,50.00
2017-06-13T06:00:42.214Z,50.10
2017-06-13T06:03:10.682Z,49.40
2017-06-13T06:05:38.187Z,49.40
2017-06-13T06:08:05.694Z,48.00
2017-06-13T06:10:33.331Z,47.40
2017-06-13T06:13:00.878Z,46.90
2017-06-13T06:15:28.426Z,46.80
2017-06-13T06:17:56.294Z,46.20
2017-06-13T06:20:23.955Z,46.40
2017-06-13T06:22:51.471Z,46.10
2017-06-13T06:25:19.176Z,46.00
2017-06-13T06:27:46.690Z,45.30
2017-06-13T06:30:14.298Z,46.50
2017-06-13T06:32:41.838Z,45.90
2017-06-13T06:35:10.107Z,45.80
2017-06-13T06:37:37.896Z,45.80
2017-06-13T06:40:05.399Z,45.80
2017-06-13T06:42:32.903Z,45.90
2017-06-13T06:45:00.488Z,45.60
2017-06-13T06:47:28.000Z,45.70
2017-06-13T06:49:56.311Z,45.80
2017-06-13T06:52:24.891Z,45.20
2017-06-13T06:54:52.394Z,44.90
2017-06-13T06:57:19.907Z,45.50
2017-06-13T06:59:47.503Z,44.40
2017-06-13T07:02:15.030Z,44.60
2017-06-13T07:04:42.595Z,44.70
2017-06-13T07:07:10.139Z,45.30
2017-06-13T07:09:37.710Z,44.40
2017-06-13T07:12:05.378Z,43.70
2017-06-13T07:14:32.887Z,43.40
2017-06-13T07:17:00.502Z,43.40
2017-06-13T07:19:28.267Z,44.10
2017-06-13T07:21:55.770Z,43.70
2017-06-13T07:24:23.279Z,43.60
2017-06-13T07:26:50.847Z,41.40
2017-06-13T07:29:18.402Z,42.20
2017-06-13T07:31:45.903Z,42.00
2017-06-13T07:34:13.643Z,42.00
2017-06-13T07:36:41.148Z,41.90
2017-06-13T07:39:08.739Z,41.60
2017-06-13T07:41:36.359Z,41.10
2017-06-13T07:44:03.862Z,39.70
2017-06-13T07:46:31.422Z,39.00
2017-06-13T07:48:59.083Z,39.10
2017-06-13T07:51:26.582Z,39.20
2017-06-13T07:53:54.207Z,38.40
2017-06-13T07:56:21.715Z,38.30
2017-06-13T07:58:49.323Z,37.70
2017-06-13T08:01:16.823Z,38.60
2017-06-13T08:03:44.319Z,39.10
2017-06-13T08:06:12.718Z,40.10
2017-06-13T08:08:40.234Z,40.00
2017-06-13T08:11:07.734Z,40.10
2017-06-13T08:13:35.279Z,39.60
2017-06-13T08:16:03.547Z,39.60
2017-06-13T08:18:31.814Z,40.00
2017-06-13T08:20:59.338Z,39.80
2017-06-13T08:23:26.839Z,40.30
2017-06-13T08:25:54.363Z,39.20
2017-06-13T08:28:22.090Z,38.50
2017-06-13T08:30:49.586Z,38.30
2017-06-13T08:33:17.089Z,38.20
2017-06-13T08:35:44.621Z,38.80
2017-06-13T08:38:12.123Z,38.40
2017-06-13T08:40:39.754Z,38.00
2017-06-13T08:43:07.262Z,38.20
2017-06-13T08:45:34.807Z,37.70
2017-06-13T08:48:02.354Z,36.90
2017-06-13T08:50:30.611Z,36.10
2017-06-13T08:52:58.203Z,36.10
2017-06-13T08:55:25.750Z,35.90
2017-06-13T08:57:53.251Z,35.80
2017-06-13T09:00:20.746Z,36.10
2017-06-13T09:02:48.339Z,35.40
2017-06-13T09:05:15.842Z,34.20
2017-06-13T09:07:43.373Z,33.00
2017-06-13T09:10:10.870Z,31.30
2017-06-13T09:12:38.416Z,31.50
2017-06-13T09:15:05.914Z,31.40
2017-06-13T09:17:34.179Z,30.50
2017-06-13T09:20:01.879Z,30.50
2017-06-13T09:22:29.434Z,30.00
2017-06-13T09:24:56.931Z,30.00
2017-06-13T09:27:24.550Z,30.10
2017-06-13T09:29:52.051Z,29.70
2017-06-13T09:32:19.544Z,29.00
2017-06-13T09:34:47.074Z,28.70
2017-06-13T09:37:14.563Z,28.90
2017-06-13T09:39:42.861Z,29.90
2017-06-13T09:42:10.411Z,29.90
2017-06-13T09:44:37.906Z,29.20
2017-06-13T09:47:05.445Z,29.60
2017-06-13T09:49:33.414Z,28.70
2017-06-13T09:52:00.910Z,28.60
2017-06-13T09:54:28.403Z,28.90
2017-06-13T09:56:56.810Z,29.00
2017-06-13T09:59:24.303Z,28.50
2017-06-13T10:01:51.799Z,28.50
2017-06-13T10:04:19.346Z,27.30
2017-06-13T10:06:46.947Z,27.90
2017-06-13T10:09:14.506Z,28.20
2017-06-13T10:11:42.050Z,27.80
2017-06-13T10:14:10.312Z,27.60
2017-06-13T10:16:38.623Z,26.70
2017-06-13T10:19:06.487Z,26.30
2017-06-13T10:21:34.046Z,25.90
2017-06-13T10:24:01.606Z,26.40
2017-06-13T10:26:29.166Z,26.00
2017-06-13T10:28:56.731Z,25.50
2017-06-13T10:31:24.300Z,25.90
2017-06-13T10:33:51.847Z,25.70
2017-06-13T10:36:19.416Z,26.70
2017-06-13T10:38:46.970Z,26.00
2017-06-13T10:41:14.531Z,27.20
2017-06-13T10:43:42.090Z,27.20
2017-06-13T10:46:09.646Z,26.80
2017-06-13T10:48:37.206Z,26.70
2017-06-13T10:51:04.767Z,26.40
2017-06-13T10:53:32.274Z,26.60
2017-06-13T10:55:59.774Z,26.20
2017-06-13T10:58:28.422Z,26.00
2017-06-13T11:00:55.919Z,25.90
2017-06-13T11:03:23.499Z,25.30
2017-06-13T11:05:51.046Z,25.40
2017-06-13T11:08:18.571Z,25.70
2017-06-13T11:10:46.066Z,26.20
2017-06-13T11:13:13.727Z,24.40
2017-06-13T11:15:41.223Z,24.10
2017-06-13T11:18:08.719Z,24.60
2017-06-13T11:20:37.259Z,23.00
2017-06-13T11:23:04.758Z,23.40
2017-06-13T11:25:33.063Z,23.90
2017-06-13T11:28:00.727Z,23.40
2017-06-13T11:30:28.286Z,23.50
2017-06-13T11:32:55.847Z,22.10
2017-06-13T11:35:23.379Z,23.50
2017-06-13T11:37:51.786Z,23.10
2017-06-13T11:40:19.551Z,23.10
2017-06-13T11:42:47.050Z,22.00
2017-06-13T11:45:14.546Z,23.20
2017-06-13T11:47:42.127Z,23.00
2017-06-13T11:50:09.712Z,24.20
2017-06-13T11:52:37.251Z,23.80
2017-06-13T11:55:05.006Z,25.20
2017-06-13T11:57:32.675Z,23.80
2017-06-13T12:00:00.170Z,23.60
2017-06-13T12:02:27.695Z,23.50
2017-06-13T12:04:55.255Z,23.30
2017-06-13T12:07:23.016Z,23.10
2017-06-13T12:09:50.678Z,23.90
2017-06-13T12:12:18.174Z,23.80
2017-06-13T12:14:45.794Z,23.50
2017-06-13T12:17:13.303Z,23.20
2017-06-13T12:19:41.607Z,22.20
2017-06-13T12:22:09.131Z,22.20
2017-06-13T12:24:36.723Z,22.30
2017-06-13T12:27:04.222Z,22.20
2017-06-13T12:29:31.718Z,22.50
2017-06-13T12:31:59.403Z,22.60
2017-06-13T12:34:26.982Z,22.90
2017-06-13T12:36:54.579Z,22.80
2017-06-13T12:39:22.099Z,23.10
2017-06-13T12:41:49.746Z,23.00
2017-06-13T12:44:17.408Z,23.50
2017-06-13T12:46:44.975Z,22.50
2017-06-13T12:49:12.526Z,22.90
2017-06-13T12:51:40.090Z,23.20
2017-06-13T12:54:07.651Z,23.10
2017-06-13T12:56:35.207Z,23.30
2017-06-13T12:59:02.766Z,23.90
2017-06-13T13:01:30.303Z,24.00
2017-06-13T13:03:58.706Z,24.10
2017-06-13T13:06:26.270Z,24.10
2017-06-13T13:08:53.822Z,24.50
2017-06-13T13:11:21.387Z,24.80
2017-06-13T13:13:48.886Z,25.00
2017-06-13T13:16:16.430Z,24.40
2017-06-13T13:18:43.967Z,24.80
2017-06-13T13:21:11.522Z,24.90
2017-06-13T13:23:39.054Z,24.60
2017-06-13T13:26:07.364Z,24.20
2017-06-13T13:28:35.026Z,24.10
2017-06-13T13:31:02.582Z,23.10
2017-06-13T13:33:30.242Z,23.50
2017-06-13T13:35:57.806Z,23.60
2017-06-13T13:38:25.362Z,24.10
2017-06-13T13:40:53.022Z,24.30
2017-06-13T13:43:20.590Z,22.60
2017-06-13T13:45:48.147Z,23.60
2017-06-13T13:48:15.670Z,23.00
2017-06-13T13:50:43.171Z,23.10
2017-06-13T13:53:10.730Z,22.60
2017-06-13T13:55:38.285Z,23.00
2017-06-13T13:58:05.846Z,22.90
2017-06-13T14:00:33.507Z,23.00
2017-06-13T14:03:01.011Z,23.10
2017-06-13T14:05:28.529Z,23.40
2017-06-13T14:07:56.070Z,23.30
2017-06-13T14:10:24.370Z,23.70
2017-06-13T14:12:51.923Z,23.70
2017-06-13T14:15:19.446Z,23.60
2017-06-13T14:17:47.086Z,23.50
2017-06-13T14:20:14.651Z,23.60
2017-06-13T14:22:42.211Z,23.50
2017-06-13T14:25:09.756Z,23.60
2017-06-13T14:27:37.259Z,23.40
2017-06-13T14:30:04.767Z,23.90
2017-06-13T14:32:34.999Z,23.90
2017-06-13T14:35:02.499Z,23.80
2017-06-13T14:37:29.995Z,24.00
2017-06-13T14:39:58.463Z,24.20
2017-06-13T14:42:25.971Z,24.40
2017-06-13T14:44:53.526Z,25.20
2017-06-13T14:47:21.094Z,25.00
2017-06-13T14:49:48.619Z,24.70
2017-06-13T14:52:16.883Z,25.00
2017-06-13T14:54:44.582Z,24.90
2017-06-13T14:57:12.146Z,24.80
2017-06-13T14:59:39.721Z,25.20
2017-06-13T15:02:07.250Z,25.40
2017-06-13T15:04:35.538Z,25.10
2017-06-13T15:07:03.060Z,25.10
2017-06-13T15:09:30.613Z,25.30
2017-06-13T15:11:58.123Z,25.10
2017-06-13T15:14:25.619Z,24.50
2017-06-13T15:16:53.343Z,24.10
2017-06-13T15:19:20.843Z,24.00
2017-06-13T15:21:48.341Z,24.10
2017-06-13T15:24:16.652Z,23.90
2017-06-13T15:26:44.156Z,23.90
2017-06-13T15:29:11.652Z,23.60
2017-06-13T15:31:39.199Z,23.60
2017-06-13T15:34:06.703Z,23.10
2017-06-13T15:36:34.198Z,22.90
2017-06-13T15:39:02.494Z,22.60
2017-06-13T15:41:30.759Z,22.50
2017-06-13T15:43:58.611Z,22.40
2017-06-13T15:46:28.466Z,22.40
2017-06-13T15:48:55.963Z,22.90
2017-06-13T15:51:23.463Z,22.20
2017-06-13T15:53:51.771Z,22.50
2017-06-13T15:56:19.272Z,22.50
2017-06-13T15:58:46.769Z,23.20
2017-06-13T16:01:14.644Z,24.10
2017-06-13T16:03:42.151Z,24.10
2017-06-13T16:06:09.653Z,24.50
2017-06-13T16:08:37.283Z,24.70
2017-06-13T16:11:04.780Z,25.10
2017-06-13T16:13:32.283Z,25.70
2017-06-13T16:15:59.811Z,26.00
2017-06-13T16:18:27.310Z,25.50
2017-06-13T16:20:54.830Z,26.10
2017-06-13T16:23:22.355Z,26.10
2017-06-13T16:25:50.622Z,26.00
2017-06-13T16:28:20.072Z,25.90
2017-06-13T16:30:47.696Z,26.30
2017-06-13T16:33:15.958Z,27.10
2017-06-13T16:35:43.456Z,27.10
2017-06-13T16:38:10.983Z,27.50
2017-06-13T16:40:38.518Z,27.80
2017-06-13T16:43:06.043Z,28.30
2017-06-13T16:45:33.538Z,28.70
2017-06-13T16:48:01.075Z,28.70
2017-06-13T16:50:28.571Z,28.70
2017-06-13T16:52:56.202Z,28.70
2017-06-13T16:55:23.758Z,28.70
2017-06-13T16:57:51.286Z,28.60
2017-06-13T17:00:18.847Z,29.30
2017-06-13T17:02:46.510Z,29.30
2017-06-13T17:05:14.014Z,29.50
2017-06-13T17:07:41.639Z,29.30
2017-06-13T17:10:09.144Z,29.30
2017-06-13T17:12:36.643Z,29.70
2017-06-13T17:15:04.310Z,29.50
2017-06-13T17:17:31.871Z,29.70
2017-06-13T17:19:59.428Z,29.90
2017-06-13T17:22:27.107Z,30.00
2017-06-13T17:24:54.650Z,30.00
2017-06-13T17:27:22.151Z,30.00
2017-06-13T17:29:49.770Z,30.20
2017-06-13T17:32:17.267Z,30.10
2017-06-13T17:34:44.763Z,30.30
2017-06-13T17:37:13.169Z,30.30
2017-06-13T17:39:40.667Z,30.30
2017-06-13T17:42:08.164Z,30.30
2017-06-13T17:44:35.711Z,30.40
2017-06-13T17:47:03.307Z,30.00
2017-06-13T17:49:30.868Z,29.90
2017-06-13T17:51:58.426Z,30.00
2017-06-13T17:54:25.934Z,30.00
2017-06-13T17:56:53.423Z,30.20
2017-06-13T17:59:21.736Z,30.00
2017-06-13T18:01:49.230Z,30.00
2017-06-13T18:04:16.731Z,30.00
2017-06-13T18:06:44.512Z,29.90
2017-06-13T18:09:12.018Z,29.90
2017-06-13T18:11:39.515Z,30.00
2017-06-13T18:14:07.283Z,30.00
2017-06-13T18:16:34.842Z,29.90
2017-06-13T18:19:02.507Z,30.30
2017-06-13T18:21:30.067Z,30.00
2017-06-13T18:23:57.566Z,29.70
2017-06-13T18:26:25.106Z,29.40
2017-06-13T18:28:52.630Z,29.00
2017-06-13T18:31:20.903Z,29.00
2017-06-13T18:33:49.298Z,28.80
2017-06-13T18:36:16.867Z,28.70
2017-06-13T18:38:44.427Z,28.60
2017-06-13T18:41:11.982Z,28.50
2017-06-13T18:43:39.643Z,28.50
2017-06-13T18:46:07.203Z,28.50
2017-06-13T18:48:34.742Z,28.40
2017-06-13T18:51:03.003Z,28.50
2017-06-13T18:53:30.598Z,28.40
2017-06-13T18:55:58.119Z,28.50
2017-06-13T18:58:25.721Z,28.50
2017-06-13T19:00:53.264Z,28.50
2017-06-13T19:03:21.778Z,28.60
2017-06-13T19:05:49.278Z,28.50
2017-06-13T19:08:16.983Z,28.50
2017-06-13T19:10:44.479Z,28.50
2017-06-13T19:13:11.975Z,28.50
2017-06-13T19:15:40.310Z,28.40
2017-06-13T19:18:07.819Z,28.40
2017-06-13T19:20:36.082Z,28.90
2017-06-13T19:23:03.670Z,28.90
2017-06-13T19:25:31.234Z,29.40
2017-06-13T19:27:58.794Z,29.70
2017-06-13T19:30:26.558Z,30.00
2017-06-13T19:32:54.123Z,30.10
2017-06-13T19:35:21.622Z,30.50
2017-06-13T19:37:49.147Z,30.80
2017-06-13T19:40:16.794Z,31.20
2017-06-13T19:42:44.359Z,31.40
2017-06-13T19:45:11.923Z,31.70
2017-06-13T19:47:39.578Z,32.10
2017-06-13T19:50:07.071Z,32.10
2017-06-13T19:52:34.599Z,32.50
2017-06-13T19:55:02.161Z,33.10
2017-06-13T19:57:29.658Z,33.30
2017-06-13T19:59:57.175Z,33.70
2017-06-13T20:02:24.738Z,34.30
2017-06-13T20:04:52.298Z,35.00
2017-06-13T20:07:19.795Z,35.00
2017-06-13T20:09:47.346Z,35.20
2017-06-13T20:12:14.839Z,35.50
2017-06-13T20:14:43.152Z,36.70
2017-06-13T20:17:10.797Z,36.30
2017-06-13T20:19:39.163Z,36.60
2017-06-13T20:22:07.438Z,37.20
2017-06-13T20:24:35.886Z,37.80
2017-06-13T20:27:09.062Z,37.80
2017-06-13T20:29:36.611Z,37.70
2017-06-13T20:32:04.111Z,38.60
2017-06-13T20:34:31.718Z,39.10
2017-06-13T20:36:59.278Z,40.10
2017-06-13T20:39:26.779Z,40.50
2017-06-13T20:41:54.288Z,41.10
2017-06-13T20:44:21.915Z,42.30
2017-06-13T20:46:50.198Z,42.30
2017-06-13T20:49:18.467Z,44.00
2017-06-13T20:51:46.071Z,43.90
2017-06-13T20:54:13.578Z,44.30
2017-06-13T20:56:41.085Z,44.70
2017-06-13T20:59:09.651Z,45.40
2017-06-13T21:01:37.238Z,46.10
2017-06-13T21:04:04.794Z,46.30
2017-06-13T21:06:32.355Z,46.90
2017-06-13T21:08:59.914Z,47.40
2017-06-13T21:11:27.474Z,47.70
2017-06-13T21:13:55.035Z,48.40
2017-06-13T21:16:22.794Z,48.90
2017-06-13T21:18:50.294Z,49.00
2017-06-13T21:21:17.814Z,49.10
2017-06-13T21:23:45.578Z,49.30
2017-06-13T21:26:13.147Z,50.50
2017-06-13T21:28:40.703Z,50.40
2017-06-13T21:31:08.258Z,50.70
2017-06-13T21:33:35.818Z,50.70
2017-06-13T21:36:03.315Z,51.30
2017-06-13T21:38:30.911Z,52.40
2017-06-13T21:40:59.214Z,52.90
2017-06-13T21:43:26.744Z,52.90
2017-06-13T21:45:55.006Z,53.10
2017-06-13T21:48:23.536Z,53.10
2017-06-13T21:50:51.099Z,53.90
2017-06-13T21:53:18.754Z,54.40
2017-06-13T21:55:46.315Z,54.40
2017-06-13T21:58:13.879Z,54.50
2017-06-13T22:00:41.408Z,54.50
2017-06-13T22:03:09.814Z,55.20
2017-06-13T22:05:37.311Z,55.70
2017-06-13T22:08:04.855Z,55.60
2017-06-13T22:10:32.351Z,56.20
2017-06-13T22:12:59.857Z,56.80
2017-06-13T22:15:27.395Z,57.00
2017-06-13T22:17:54.898Z,57.50
2017-06-13T22:20:22.392Z,57.80
2017-06-13T22:22:50.016Z,58.60
2017-06-13T22:25:17.510Z,58.60
2017-06-13T22:27:45.006Z,58.60
2017-06-13T22:30:12.535Z,59.40
2017-06-13T22:32:40.071Z,59.90
2017-06-13T22:35:08.335Z,59.30
2017-06-13T22:37:35.863Z,59.90
2017-06-13T22:40:03.354Z,60.30
2017-06-13T22:42:30.882Z,60.70
2017-06-13T22:44:59.227Z,60.90
2017-06-13T22:47:26.767Z,61.40
2017-06-13T22:49:55.031Z,61.80
2017-06-13T22:52:22.528Z,61.80
2017-06-13T22:54:50.067Z,62.10
2017-06-13T22:57:18.331Z,62.50
2017-06-13T22:59:46.595Z,63.20
2017-06-13T23:02:14.139Z,63.20
2017-06-13T23:04:41.634Z,63.30
2017-06-13T23:07:09.899Z,64.20
2017-06-13T23:09:37.435Z,64.10
2017-06-13T23:12:04.935Z,64.50
2017-06-13T23:14:33.195Z,65.30
2017-06-13T23:17:01.168Z,65.30
2017-06-13T23:19:29.431Z,66.80
2017-06-13T23:21:56.927Z,66.80
2017-06-13T23:24:24.461Z,66.70
2017-06-13T23:26:51.954Z,66.50
2017-06-13T23:29:19.447Z,66.90
2017-06-13T23:31:46.982Z,67.40
2017-06-13T23:34:14.481Z,67.40
2017-06-13T23:36:41.976Z,67.90
2017-06-13T23:39:09.599Z,68.50
2017-06-13T23:41:37.090Z,68.00
2017-06-13T23:44:05.348Z,67.90
2017-06-13T23:46:33.386Z,67.70
2017-06-13T23:49:00.923Z,69.10
2017-06-13T23:51:28.420Z,68.80
2017-06-13T23:53:55.948Z,69.70
2017-06-13T23:56:23.446Z,71.30
2017-06-13T23:58:50.971Z,71.50
